»·PEaware :: DAL175 KSLC-KPDX

DAL175 :: KSLC-KPDX

FLIGHT INFORMATION

Flight Status: Arrived
Operator:
Delta Air Lines
More flights by this operator :: More flights under this callsign
Pilot: Anonymous 15639 (15639)
Aircraft: BOEING 737-800
(B738)
More flights by this aircraft type
Origin: KSLC Salt Lake City Intl
United States
Destination: KPDX Portland Intl
United States
More flights between these airports :: More routes between these airports
Route: CGULL1 TWF J15 BOI J163 BKE JOTBA HHOOD4
File this flight plan on PilotEdge
Remarks:
Altitude:
(Current/Filed)
36,000ft
Speed:
(Current/Filed)
440kts
Departed: 28-Jun-18 11:30 AM
Arrived: 28-Jun-18 01:01 PM
Distance/Time
Traveled:
546nm/1:31
Distance/Time
To Go:
Arrived

Flight Plot

Page will automatically refresh every two minutes.

Flight plan parsing failed; only flown route is shown


Map Options




Map Legend


Flown Route
Filed Route
Departure Airport
Arrival Airport
Navaid (VOR, NDB)
Fix

Horizontal Profiles

Position Reports

Time Latitude Longitude Heading Altitude Ground
Speed
28-Jun-18 11:00 40.788275 -111.982083 103 4235ft 0kts
28-Jun-18 11:01 40.788275 -111.982083 103 4235ft 0kts
28-Jun-18 11:02 40.788275 -111.982083 103 4235ft 0kts
28-Jun-18 11:03 40.788275 -111.982083 103 4235ft 0kts
28-Jun-18 11:04 40.788275 -111.982083 103 4235ft 0kts
28-Jun-18 11:05 40.788275 -111.982083 103 4235ft 0kts
28-Jun-18 11:06 40.788275 -111.982083 103 4235ft 0kts
28-Jun-18 11:07 40.788275 -111.982083 103 4235ft 0kts
28-Jun-18 11:08 40.788275 -111.982083 103 4235ft 0kts
28-Jun-18 11:09 40.788275 -111.982083 103 4235ft 0kts
28-Jun-18 11:10 40.788275 -111.982083 103 4235ft 0kts
28-Jun-18 11:11 40.788275 -111.982083 103 4235ft 0kts
28-Jun-18 11:12 40.788275 -111.982083 103 4235ft 0kts
28-Jun-18 11:13 40.788275 -111.982083 103 4235ft 0kts
28-Jun-18 11:14 40.788275 -111.982083 103 4235ft 0kts
28-Jun-18 11:15 40.788275 -111.982083 103 4235ft 0kts
28-Jun-18 11:16 40.788275 -111.982083 103 4235ft 0kts
28-Jun-18 11:17 40.788275 -111.982083 103 4235ft 0kts
28-Jun-18 11:18 40.788275 -111.982083 103 4235ft 0kts
28-Jun-18 11:19 40.788275 -111.982083 103 4235ft 0kts
28-Jun-18 11:20 40.788331 -111.982410 93 4235ft 2kts
28-Jun-18 11:21 40.787998 -111.982960 9 4235ft 0kts
28-Jun-18 11:22 40.787931 -111.982970 6 4235ft 0kts
28-Jun-18 11:23 40.788202 -111.982926 7 4235ft 6kts
28-Jun-18 11:24 40.791491 -111.982921 22 4235ft 10kts
28-Jun-18 11:25 40.791966 -111.979267 85 4235ft 13kts
28-Jun-18 11:26 40.794954 -111.977643 356 4235ft 16kts
28-Jun-18 11:27 40.799832 -111.978220 356 4235ft 18kts
28-Jun-18 11:28 40.804126 -111.978247 355 4235ft 12kts
28-Jun-18 11:29 40.807191 -111.978570 12 4235ft 11kts
28-Jun-18 11:30 40.805027 -111.976692 174 4235ft 44kts
28-Jun-18 11:31 40.769303 -111.971840 172 5256ft 170kts
28-Jun-18 11:32 40.733097 -112.006842 267 7685ft 222kts
28-Jun-18 11:33 40.772075 -112.080643 306 10129ft 273kts
28-Jun-18 11:34 40.832800 -112.153014 315 12392ft 319kts
28-Jun-18 11:35 40.903957 -112.234747 315 14932ft 353kts
28-Jun-18 11:36 40.979041 -112.321095 314 17911ft 368kts
28-Jun-18 11:37 41.057391 -112.411548 314 20748ft 381kts
28-Jun-18 11:38 41.144265 -112.490279 323 23228ft 399kts
28-Jun-18 11:39 41.235308 -112.577336 317 25501ft 409kts
28-Jun-18 11:40 41.319305 -112.679367 306 27587ft 414kts
28-Jun-18 11:41 41.397669 -112.794043 305 29605ft 423kts
28-Jun-18 11:42 41.474493 -112.910666 303 31866ft 417kts
28-Jun-18 11:43 41.550143 -113.026740 302 33714ft 416kts
28-Jun-18 11:44 41.625243 -113.142426 301 35422ft 412kts
28-Jun-18 11:45 41.701312 -113.260402 302 35945ft 434kts
28-Jun-18 11:46 41.782342 -113.386581 302 35946ft 456kts
28-Jun-18 11:47 41.864486 -113.514579 302 35944ft 453kts
28-Jun-18 11:48 41.946402 -113.642847 302 35947ft 453kts
28-Jun-18 11:49 42.027771 -113.770778 301 35955ft 452kts
28-Jun-18 11:50 42.109524 -113.899859 301 35943ft 452kts
28-Jun-18 11:51 42.190732 -114.028535 302 35941ft 453kts
28-Jun-18 11:52 42.272454 -114.157990 301 35951ft 453kts
28-Jun-18 11:53 42.353830 -114.287475 302 35956ft 453kts
28-Jun-18 11:54 42.434865 -114.416989 302 35957ft 453kts
28-Jun-18 11:55 42.516675 -114.546536 303 35960ft 453kts
28-Jun-18 11:56 42.599313 -114.675666 302 35966ft 453kts
28-Jun-18 11:57 42.680873 -114.805558 301 35961ft 452kts
28-Jun-18 11:58 42.762111 -114.935390 301 35959ft 453kts
28-Jun-18 11:59 42.843693 -115.065715 301 35957ft 457kts
28-Jun-18 12:00 42.926638 -115.197998 300 35944ft 463kts
28-Jun-18 12:01 43.010232 -115.331074 300 35942ft 461kts
28-Jun-18 12:02 43.093878 -115.464090 300 35944ft 462kts
28-Jun-18 12:03 43.177486 -115.596817 301 35926ft 463kts
28-Jun-18 12:04 43.261441 -115.729826 300 35931ft 462kts
28-Jun-18 12:05 43.345926 -115.863426 300 35933ft 463kts
28-Jun-18 12:06 43.430338 -115.996852 300 35948ft 464kts
28-Jun-18 12:07 43.514945 -116.130356 301 35962ft 463kts
28-Jun-18 12:08 43.606807 -116.257498 308 35958ft 474kts
28-Jun-18 12:09 43.688238 -116.358440 308 35951ft 474kts
28-Jun-18 12:10 43.781234 -116.475436 308 35948ft 473kts
28-Jun-18 12:11 43.878364 -116.598068 308 35955ft 474kts
28-Jun-18 12:12 43.975278 -116.720298 307 35962ft 472kts
28-Jun-18 12:13 44.072471 -116.842768 307 35957ft 472kts
28-Jun-18 12:14 44.169169 -116.964502 309 35941ft 465kts
28-Jun-18 12:15 44.264178 -117.084005 311 35943ft 458kts
28-Jun-18 12:16 44.358047 -117.201915 312 35946ft 457kts
28-Jun-18 12:17 44.452289 -117.320107 312 35984ft 455kts
28-Jun-18 12:18 44.546806 -117.438565 312 36014ft 456kts
28-Jun-18 12:19 44.641003 -117.556530 312 36019ft 456kts
28-Jun-18 12:20 44.735725 -117.675034 312 36024ft 457kts
28-Jun-18 12:21 44.823653 -117.799764 291 36040ft 438kts
28-Jun-18 12:22 44.857670 -117.959848 275 36018ft 425kts
28-Jun-18 12:23 44.878547 -118.123859 273 36022ft 424kts
28-Jun-18 12:24 44.897316 -118.287861 273 36029ft 424kts
28-Jun-18 12:25 44.915777 -118.451436 273 36037ft 424kts
28-Jun-18 12:26 44.934486 -118.615516 273 36047ft 424kts
28-Jun-18 12:27 44.953196 -118.777881 273 36067ft 423kts
28-Jun-18 12:28 44.971954 -118.939117 277 36054ft 409kts
28-Jun-18 12:29 44.990945 -119.099967 279 36049ft 420kts
28-Jun-18 12:30 45.010301 -119.261518 279 36044ft 418kts
28-Jun-18 12:31 45.029873 -119.423374 279 36030ft 418kts
28-Jun-18 12:32 45.049715 -119.585663 279 36024ft 418kts
28-Jun-18 12:33 45.069597 -119.746853 279 36026ft 418kts
28-Jun-18 12:34 45.089832 -119.909149 279 35415ft 418kts
28-Jun-18 12:35 45.110136 -120.070254 279 34430ft 421kts
28-Jun-18 12:36 45.131017 -120.234068 279 32342ft 430kts
28-Jun-18 12:37 45.152084 -120.397667 280 29562ft 410kts
28-Jun-18 12:38 45.179463 -120.548260 296 27351ft 391kts
28-Jun-18 12:39 45.230807 -120.682942 297 25093ft 382kts
28-Jun-18 12:40 45.280409 -120.812530 297 22946ft 371kts
28-Jun-18 12:41 45.328442 -120.938380 297 20896ft 360kts
28-Jun-18 12:42 45.375030 -121.060952 298 18937ft 344kts
28-Jun-18 12:43 45.419616 -121.178546 299 16934ft 334kts
28-Jun-18 12:44 45.449597 -121.299251 287 15096ft 318kts
28-Jun-18 12:45 45.472170 -121.417212 288 13441ft 302kts
28-Jun-18 12:46 45.494467 -121.531354 288 11859ft 301kts
28-Jun-18 12:47 45.516067 -121.642046 288 10697ft 279kts
28-Jun-18 12:48 45.533416 -121.745208 276 9672ft 264kts
28-Jun-18 12:49 45.536087 -121.847625 275 8618ft 255kts
28-Jun-18 12:50 45.539046 -121.946489 274 7642ft 249kts
28-Jun-18 12:51 45.541685 -122.041293 257 6716ft 232kts
28-Jun-18 12:52 45.506684 -122.117498 236 5794ft 224kts
28-Jun-18 12:53 45.475675 -122.184827 266 5477ft 189kts
28-Jun-18 12:54 45.480004 -122.258086 278 4735ft 185kts
28-Jun-18 12:55 45.490859 -122.328638 298 3826ft 183kts
28-Jun-18 12:56 45.515204 -122.392182 300 2884ft 177kts
28-Jun-18 12:57 45.536798 -122.446972 299 1955ft 143kts
28-Jun-18 12:58 45.555859 -122.495688 299 1202ft 140kts
28-Jun-18 12:59 45.574631 -122.543909 299 448ft 138kts
28-Jun-18 13:00 45.590827 -122.585441 299 37ft 44kts
28-Jun-18 13:01 45.592102 -122.591496 273 37ft 0kts
28-Jun-18 13:02 45.592118 -122.593056 261 37ft 10kts
28-Jun-18 13:03 45.593040 -122.597602 241 37ft 11kts
28-Jun-18 13:04 45.590949 -122.598246 128 37ft 8kts
28-Jun-18 13:05 45.590758 -122.596314 8 37ft 3kts
28-Jun-18 13:06 45.591026 -122.596267 7 37ft 0kts
28-Jun-18 13:07 45.591026 -122.596267 7 37ft 0kts

Navigation Log

Ident Type
Flight plan parsing failed, navigation log unavailable